Latest Weather Observations for Parkes Airport

IDN60801

Issued at 12:32 pm EST Monday 24 July 2017 (issued every 30 minutes, with the page automatically refreshed every 10 minutes)

About weather observations | Map of weather stations | Latest weather observations for NSW | Other Formats
Station Details ID: 065068 Name: PARKES AIRPORT AWS Lat: -33.13 Lon: 148.24 Height: 323.3 m
Data from the previous 72 hours. | See also: Recent months at Parkes Airport
Date/Time
EST
Temp
°C
App
Temp
°C
Dew
Point
°C
Rel
Hum
%
Delta-T
°C
Wind Press
QNH
hPa
Press
MSL
hPa
Rain since
9am
mm
Dir  Spd
km/h
Gust
km/h
Spd
kts
Gust
kts
24/12:30pm 13.9 10.5 6.0 59 3.8 SW 13 20 7 11 1022.4 1022.9 0.0
24/12:00pm 13.6 10.3 6.2 61 3.6 SW 13 17 7 9 1022.7 1023.2 0.0
24/11:30am 12.9 10.6 5.8 62 3.4 SW 7 15 4 8 1023.2 1023.8 0.0
24/11:00am 12.2 9.7 6.5 68 2.7 W 9 15 5 8 1023.4 1024.0 0.0
24/10:30am 11.4 9.2 5.3 66 2.9 W 6 9 3 5 1023.5 1024.1 0.0
24/10:12am 11.1 9.5 4.3 63 3.1 W 2 9 1 5 1023.5 1024.1 0.0
24/10:00am 10.3 8.2 4.0 65 2.8 SSW 4 9 2 5 1023.6 1024.2 0.0
24/09:36am 9.4 7.4 2.5 62 3.0 NE 2 7 1 4 1023.6 1024.2 0.0
24/09:30am 9.7 7.4 2.8 62 3.0 NE 4 7 2 4 1023.5 1024.1 0.0
24/09:00am 7.1 4.0 1.2 66 2.4 NE 7 9 4 5 1023.3 1023.9 0.0
24/08:30am 4.5 1.3 0.8 77 1.5 ENE 7 9 4 5 1023.1 1023.7 0.0
24/08:00am 1.3 -2.5 -1.1 84 0.9 NE 9 13 5 7 1022.8 1023.3 0.0
24/07:30am -1.1 -5.2 -2.8 88 0.5 NE 9 11 5 6 1022.4 1022.9 0.0
24/07:00am -1.5 -5.2 -3.2 88 0.5 NNE 7 9 4 5 1022.0 1022.5 0.0
24/06:30am -0.7 -5.1 -2.4 88 0.6 ENE 11 13 6 7 1021.4 1021.9 0.0
24/06:00am -1.5 -5.7 -3.5 86 0.6 NE 9 13 5 7 1021.0 1021.5 0.0
24/05:30am -0.2 -4.6 -2.6 84 0.8 ENE 11 13 6 7 1020.4 1021.0 0.0
24/05:00am 1.0 -3.7 -2.1 80 1.1 ENE 13 15 7 8 1020.2 1020.7 0.0
24/04:30am 0.5 -4.7 -2.5 80 1.1 ENE 15 15 8 8 1019.8 1020.3 0.0
24/04:00am 0.1 -3.9 -2.4 83 0.9 NE 9 11 5 6 1019.9 1020.4 0.0
24/03:30am 0.3 -3.4 -2.6 81 1.0 NE 7 9 4 5 1019.7 1020.2 0.0
24/03:00am 0.4 -3.7 -2.8 79 1.1 NE 9 13 5 7 1019.8 1020.3 0.0
24/02:30am 1.2 -3.6 -2.2 78 1.2 ENE 13 15 7 8 1019.8 1020.3 0.0
24/02:00am 2.1 -2.7 -2.2 73 1.5 E 13 13 7 7 1019.8 1020.3 0.0
24/01:30am 2.3 -2.5 -2.2 72 1.6 E 13 15 7 8 1019.8 1020.3 0.0
24/01:00am 1.7 -2.7 -2.8 72 1.6 ENE 11 13 6 7 1019.7 1020.2 0.0
24/12:30am 3.8 -0.3 -2.8 62 2.4 ENE 9 11 5 6 1019.6 1020.1 0.0
24/12:00am 4.8 0.8 -2.5 59 2.6 ENE 9 11 5 6 1019.6 1020.1 0.0
 
Date/Time
EST
Temp
°C
App
Temp
°C
Dew
Point
°C
Rel
Hum
%
Delta-T
°C
Wind Press
QNH
hPa
Press
MSL
hPa
Rain since
9am
mm
Dir  Spd
km/h
Gust
km/h
Spd
kts
Gust
kts
23/11:30pm 6.2 2.6 -2.4 54 3.2 NE 7 11 4 6 1019.5 1020.0 0.0
23/11:00pm 6.8 2.9 -1.6 55 3.2 NE 9 11 5 6 1019.2 1019.7 0.0
23/10:30pm 6.8 2.8 -2.4 52 3.4 NE 9 13 5 7 1019.1 1019.6 0.0
23/10:00pm 6.9 2.9 -2.0 53 3.4 NNE 9 13 5 7 1019.1 1019.6 0.0
23/09:30pm 7.3 3.8 -1.6 53 3.4 ENE 7 9 4 5 1018.9 1019.4 0.0
23/09:00pm 7.0 3.0 -1.9 53 3.4 NE 9 11 5 6 1018.7 1019.2 0.0
23/08:30pm 7.4 3.9 -1.0 55 3.3 ENE 7 9 4 5 1018.4 1018.9 0.0
23/08:00pm 8.0 4.2 -1.0 53 3.5 NE 9 11 5 6 1018.1 1018.6 0.0
23/07:30pm 9.3 5.5 -1.1 48 4.1 NE 9 11 5 6 1017.9 1018.4 0.0
23/07:00pm 9.4 6.3 0.1 52 3.8 ENE 6 7 3 4 1017.7 1018.1 0.0
23/06:30pm 7.4 3.6 -1.0 55 3.3 NE 9 11 5 6 1017.3 1017.7 0.0
23/06:00pm 9.7 5.5 -0.8 48 4.2 NNE 11 13 6 7 1016.9 1017.4 0.0
23/05:30pm 12.2 7.3 -0.3 42 5.2 N 15 17 8 9 1016.7 1017.2 0.0
23/05:00pm 14.7 9.8 -0.2 36 6.4 N 15 20 8 11 1016.6 1017.1 0.0
23/04:30pm 16.2 10.5 -0.5 32 7.2 N 19 26 10 14 1016.6 1017.1 0.0
23/04:00pm 17.0 11.3 -0.7 30 7.6 NNW 19 24 10 13 1016.7 1017.2 0.0
23/03:30pm 17.2 11.3 -0.5 30 7.7 NNW 20 30 11 16 1016.6 1017.1 0.0
23/03:00pm 17.2 11.3 -0.5 30 7.7 NNW 20 28 11 15 1016.9 1017.4 0.0
23/02:30pm 17.0 10.4 -0.7 30 7.6 NNW 24 32 13 17 1016.9 1017.4 0.0
23/02:00pm 17.0 10.4 -0.2 31 7.5 NNW 24 33 13 18 1016.9 1017.4 0.0
23/01:30pm 16.2 9.5 -1.4 30 7.4 NNW 24 33 13 18 1017.7 1018.1 0.0
23/01:00pm 15.9 9.6 -0.8 32 7.1 NNW 22 28 12 15 1018.3 1018.8 0.0
23/12:30pm 15.7 9.7 -1.8 30 7.3 NNW 20 30 11 16 1018.9 1019.4 0.0
23/12:00pm 15.8 10.2 0.0 34 6.8 NNW 19 26 10 14 1019.5 1020.0 0.0
23/11:30am 14.8 8.8 -1.7 32 6.8 NNW 20 28 11 15 1020.2 1020.7 0.0
23/11:00am 14.3 8.5 -1.3 34 6.5 NNW 19 28 10 15 1020.9 1021.4 0.0
23/10:30am 13.2 7.2 -1.2 37 5.9 N 20 26 11 14 1021.3 1021.8 0.0
23/10:00am 11.9 6.7 0.4 45 4.8 N 17 22 9 12 1021.4 1021.9 0.0
23/09:30am 10.8 6.5 1.1 51 4.1 N 13 20 7 11 1021.4 1021.9 0.0
23/09:00am 7.3 3.7 0.5 62 2.7 NNE 9 13 5 7 1021.4 1021.9 0.0
23/08:30am 4.8 1.2 0.4 73 1.7 NE 9 11 5 6 1021.2 1021.7 0.0
23/08:00am 2.1 -2.1 -0.8 81 1.1 ENE 11 13 6 7 1021.3 1021.8 0.0
23/07:30am 0.9 -3.0 -1.7 83 1.0 ENE 9 11 5 6 1021.2 1021.7 0.0
23/07:00am -1.1 -5.6 -3.1 86 0.6 NE 11 13 6 7 1021.2 1021.7 0.0
23/06:30am -0.7 -5.1 -2.7 86 0.7 ENE 11 15 6 8 1020.9 1021.4 0.0
23/06:00am -0.9 -5.3 -2.5 89 0.5 NE 11 11 6 6 1021.0 1021.5 0.0
23/05:30am -2.5 -6.7 -3.9 90 0.3 ENE 9 11 5 6 1020.9 1021.4 0.0
23/05:00am -2.3 -6.9 -4.2 87 0.5 ENE 11 13 6 7 1020.2 1020.7 0.0
23/04:30am -1.2 -6.0 -2.9 88 0.5 ENE 13 17 7 9 1020.4 1021.0 0.0
23/04:00am -1.8 -6.7 -3.4 89 0.4 ENE 13 15 7 8 1020.6 1021.1 0.0
23/03:30am -2.0 -7.3 -3.6 89 0.4 ENE 15 17 8 9 1020.7 1021.2 0.0
23/03:00am -2.6 -7.2 -4.0 90 0.3 NE 11 13 6 7 1020.7 1021.2 0.0
23/02:30am -2.1 -5.7 -3.4 91 0.3 NNE 6 9 3 5 1020.6 1021.1 0.0
23/02:00am -2.2 -5.9 -3.3 92 0.3 NE 7 11 4 6 1020.4 1021.0 0.0
23/01:30am -2.5 -6.7 -3.6 92 0.3 NNE 9 11 5 6 1020.6 1021.1 0.0
23/01:00am -3.0 -6.9 -4.4 90 0.3 NNE 7 9 4 5 1020.9 1021.4 0.0
23/12:30am -2.7 -7.3 -4.1 90 0.3 NE 11 13 6 7 1021.0 1021.5 0.0
23/12:00am -2.0 -6.5 -3.3 91 0.3 ENE 11 13 6 7 1021.4 1021.9 0.0
 
Date/Time
EST
Temp
°C
App
Temp
°C
Dew
Point
°C
Rel
Hum
%
Delta-T
°C
Wind Press
QNH
hPa
Press
MSL
hPa
Rain since
9am
mm
Dir  Spd
km/h
Gust
km/h
Spd
kts
Gust
kts
22/11:30pm -1.8 -6.3 -3.2 90 0.4 NE 11 13 6 7 1021.6 1022.1 0.0
22/11:00pm -1.6 -6.5 -3.2 89 0.5 ENE 13 17 7 9 1021.5 1022.0 0.0
22/10:30pm -1.5 -6.4 -3.2 88 0.5 ENE 13 15 7 8 1021.5 1022.0 0.0
22/10:00pm -0.4 -5.2 -2.9 83 0.8 ENE 13 15 7 8 1021.4 1021.9 0.0
22/09:30pm -0.2 -5.0 -2.3 86 0.7 ENE 13 15 7 8 1021.3 1021.8 0.0
22/09:00pm 0.8 -3.8 -1.4 85 0.8 ENE 13 15 7 8 1021.1 1021.6 0.0
22/08:30pm 1.4 -2.5 -1.3 82 1.0 NE 9 13 5 7 1021.0 1021.5 0.0
22/08:00pm 2.1 -2.2 -1.5 77 1.3 ENE 11 13 6 7 1020.9 1021.4 0.0
22/07:30pm 2.7 -1.1 -1.1 76 1.4 ENE 9 11 5 6 1020.9 1021.4 0.0
22/07:00pm 3.2 -1.0 -0.8 75 1.5 ENE 11 13 6 7 1020.8 1021.3 0.0
22/06:30pm 3.7 0.3 -0.3 75 1.5 E 7 11 4 6 1020.8 1021.3 0.0
22/06:00pm 4.8 2.2 -1.4 64 2.3 SE 2 6 1 3 1020.8 1021.3 0.0
22/05:59pm 4.6 2.0 -1.8 63 2.4 SE 2 7 1 4 1020.8 1021.3 0.0
22/05:30pm 9.9 7.9 -0.3 49 4.1 CALM 0 0 0 0 1020.7 1021.2 0.0
22/05:00pm 12.3 10.2 -0.6 41 5.3 CALM 0 0 0 0 1020.7 1021.2 0.0
22/04:30pm 14.2 11.8 -0.6 36 6.2 SSW 2 7 1 4 1020.9 1021.4 0.0
22/04:00pm 14.3 10.8 -1.3 34 6.5 SW 7 11 4 6 1020.8 1021.3 0.0
22/03:30pm 15.1 11.4 -0.2 35 6.6 W 9 15 5 8 1021.0 1021.5 0.0
22/03:00pm 15.3 11.2 -0.4 34 6.7 W 11 17 6 9 1021.2 1021.7 0.0
22/02:30pm 15.0 10.9 -0.3 35 6.5 NW 11 19 6 10 1021.5 1022.0 0.0
22/02:00pm 15.1 10.6 -0.2 35 6.5 NW 13 20 7 11 1021.6 1022.1 0.0
22/01:30pm 15.0 10.8 1.9 41 5.9 WNW 13 19 7 10 1022.1 1022.6 0.0
22/01:00pm 14.6 9.5 0.8 39 6.0 NW 17 26 9 14 1022.6 1023.1 0.0
22/12:30pm 14.8 9.2 1.3 40 6.0 WNW 20 32 11 17 1023.2 1023.8 0.0
22/12:00pm 14.5 9.5 1.1 40 5.8 NW 17 28 9 15 1023.6 1024.2 0.0
22/11:30am 13.4 8.2 0.1 40 5.6 NW 17 24 9 13 1024.2 1024.7 0.0
22/11:00am 13.5 9.5 2.7 48 4.8 NNW 13 19 7 10 1024.5 1025.0 0.0
22/10:30am 11.7 8.8 2.7 54 4.0 NNW 7 13 4 7 1024.7 1025.2 0.0
22/10:00am 9.5 7.1 2.4 61 3.0 N 4 9 2 5 1024.8 1025.3 0.0
22/09:30am 7.2 4.3 1.7 68 2.3 NE 6 9 3 5 1024.6 1025.1 0.0
22/09:00am 5.2 2.2 1.0 74 1.7 NNE 6 7 3 4 1024.6 1025.1 0.2
22/08:30am 1.8 -1.5 0.0 88 0.7 NE 7 9 4 5 1024.4 1024.9 0.2
22/08:00am -1.2 -4.8 -2.0 94 0.2 NE 7 9 4 5 1024.4 1024.9 0.0
22/07:30am -4.1 -8.4 -4.9 94 0.1 NE 9 11 5 6 1024.0 1024.5 0.0
22/07:00am -4.1 -8.0 -4.9 94 0.1 N 7 7 4 4 1023.4 1024.0 0.0
22/06:30am -4.5 -8.5 -5.6 92 0.2 NNE 7 9 4 5 1023.1 1023.7 0.0
22/06:00am -3.7 -8.0 -4.7 93 0.2 NE 9 11 5 6 1022.9 1023.5 0.0
22/05:30am -3.8 -8.1 -4.8 93 0.2 NE 9 13 5 7 1022.8 1023.3 0.0
22/05:00am -3.2 -8.2 -4.2 93 0.2 ENE 13 15 7 8 1022.8 1023.3 0.0
22/04:30am -3.5 -8.1 -4.3 94 0.1 NE 11 13 6 7 1022.8 1023.3 0.0
22/04:00am -4.2 -8.2 -5.3 92 0.2 NE 7 9 4 5 1023.0 1023.6 0.0
22/03:30am -3.6 -8.3 -4.6 93 0.2 NE 11 15 6 8 1023.0 1023.6 0.0
22/03:00am -3.6 -7.5 -4.4 94 0.1 NNE 7 11 4 6 1023.2 1023.8 0.0
22/02:30am -3.9 -7.8 -4.9 93 0.2 NNE 7 9 4 5 1023.5 1024.1 0.0
22/02:00am -3.4 -7.3 -4.4 93 0.2 NNE 7 9 4 5 1023.5 1024.1 0.0
22/01:30am -3.1 -6.9 -4.1 93 0.2 NNE 7 9 4 5 1023.6 1024.2 0.0
22/01:00am -3.3 -7.5 -4.1 94 0.1 NE 9 9 5 5 1023.6 1024.2 0.0
22/12:30am -3.3 -7.0 -4.3 93 0.2 ENE 6 7 3 4 1023.7 1024.3 0.0
22/12:00am -2.8 -6.6 -4.1 91 0.3 ENE 7 11 4 6 1024.0 1024.5 0.0
 
Date/Time
EST
Temp
°C
App
Temp
°C
Dew
Point
°C
Rel
Hum
%
Delta-T
°C
Wind Press
QNH
hPa
Press
MSL
hPa
Rain since
9am
mm
Dir  Spd
km/h
Gust
km/h
Spd
kts
Gust
kts
21/11:30pm -2.3 -6.5 -3.7 90 0.4 ENE 9 11 5 6 1024.0 1024.5 0.0
21/11:00pm -1.0 -4.6 -2.1 92 0.3 ENE 7 9 4 5 1023.9 1024.4 0.0
21/10:30pm -1.7 -6.1 -2.8 92 0.3 NE 11 13 6 7 1023.9 1024.4 0.0
21/10:00pm -1.0 -5.1 -2.7 88 0.5 NE 9 11 5 6 1024.0 1024.5 0.0
21/09:30pm 0.3 -3.1 -1.8 86 0.8 SE 6 9 3 5 1023.7 1024.3 0.0
21/09:00pm 0.8 -2.5 -1.4 85 0.8 SSW 6 9 3 5 1024.0 1024.5 0.0
21/08:30pm 0.9 -1.4 -2.2 80 1.1 CALM 0 0 0 0 1023.9 1024.4 0.0
21/08:00pm 2.8 0.7 -1.0 76 1.4 CALM 0 0 0 0 1023.6 1024.2 0.0
21/07:30pm 4.2 2.3 0.5 77 1.4 CALM 0 0 0 0 1023.3 1023.9 0.0
21/07:00pm 4.6 0.8 -0.8 68 2.0 ESE 9 13 5 7 1023.0 1023.6 0.0
21/06:30pm 4.4 1.3 0.2 74 1.6 ENE 6 7 3 4 1022.6 1023.1 0.0
21/06:00pm 6.5 2.9 0.4 65 2.4 S 9 11 5 6 1022.5 1023.0 0.0
21/05:30pm 8.2 3.9 1.1 61 2.9 S 13 15 7 8 1022.5 1023.0 0.0
21/05:00pm 10.7 6.1 1.8 54 3.8 S 15 17 8 9 1022.3 1022.8 0.0
21/04:30pm 12.3 7.1 2.7 52 4.3 SSW 19 24 10 13 1022.1 1022.6 0.0
21/04:00pm 13.0 8.3 1.0 44 5.2 S 15 19 8 10 1021.8 1022.3 0.0
21/03:30pm 13.6 9.4 1.6 44 5.3 SSW 13 20 7 11 1021.6 1022.1 0.0
21/03:00pm 13.5 9.2 1.2 43 5.3 S 13 19 7 10 1021.6 1022.1 0.0
21/02:30pm 13.5 9.7 1.5 44 5.3 SSW 11 17 6 9 1021.5 1022.0 0.0
21/02:00pm 13.5 9.9 0.5 41 5.6 SSE 9 13 5 7 1021.5 1022.0 0.0
21/01:30pm 13.3 8.8 1.9 46 5.0 SSW 15 26 8 14 1021.7 1022.2 0.0
21/01:00pm 13.0 8.8 1.4 45 5.0 SSE 13 20 7 11 1021.9 1022.4 0.0

Other Formats:

Comma delimited format used in spreadsheet applications
http://www.bom.gov.au/fwo/IDN60801/IDN60801.95717.axf

JavaScript Object Notation format (JSON) in row-major order
http://www.bom.gov.au/fwo/IDN60801/IDN60801.95717.json